createdAt,value
2023-04-12T00:01:11.774Z,1012
2023-04-12T00:03:11.802Z,1012
2023-04-12T00:05:12.218Z,1012
2023-04-12T00:09:11.770Z,1012
2023-04-12T00:13:11.811Z,1012
2023-04-12T00:17:11.808Z,1012
2023-04-12T00:19:11.780Z,1012
2023-04-12T00:23:11.853Z,1012
2023-04-12T00:25:16.325Z,1012
2023-04-12T00:27:11.785Z,1012
2023-04-12T00:29:11.784Z,1012
2023-04-12T00:31:12.309Z,1012
2023-04-12T00:33:11.774Z,1012
2023-04-12T00:35:11.779Z,1012
2023-04-12T00:37:16.478Z,1012
2023-04-12T00:39:14.364Z,1012
2023-04-12T00:41:15.457Z,1012
2023-04-12T00:43:15.839Z,1012
2023-04-12T00:45:17.547Z,1012
2023-04-12T00:47:11.798Z,1012
2023-04-12T00:49:12.204Z,1012
2023-04-12T00:51:15.909Z,1012
2023-04-12T00:53:11.836Z,1012
2023-04-12T00:55:11.799Z,1012
2023-04-12T00:57:11.821Z,1012
2023-04-12T01:01:15.828Z,1012
2023-04-12T01:03:11.916Z,1012
2023-04-12T01:05:11.803Z,1012
2023-04-12T01:07:11.787Z,1012
2023-04-12T01:09:11.777Z,1012
2023-04-12T01:11:11.823Z,1012
2023-04-12T01:13:11.778Z,1012
2023-04-12T01:15:11.839Z,1012
2023-04-12T01:19:18.604Z,1012
2023-04-12T01:21:11.809Z,1012
2023-04-12T01:23:11.783Z,1012
2023-04-12T01:25:12.185Z,1012
2023-04-12T01:27:11.775Z,1012
2023-04-12T01:29:11.794Z,1012
2023-04-12T01:31:11.820Z,1012
2023-04-12T01:33:11.783Z,1012
2023-04-12T01:35:11.782Z,1012
2023-04-12T01:37:12.210Z,1012
2023-04-12T01:39:12.273Z,1012
2023-04-12T01:41:12.190Z,1012
2023-04-12T01:43:11.848Z,1012
2023-04-12T01:45:16.633Z,1012
2023-04-12T01:47:11.810Z,1012
2023-04-12T01:49:11.785Z,1012
2023-04-12T01:51:11.813Z,1012
2023-04-12T01:53:11.790Z,1012
2023-04-12T01:55:11.816Z,1012
2023-04-12T01:57:11.793Z,1012
2023-04-12T01:59:11.786Z,1012
2023-04-12T02:01:11.847Z,1012
2023-04-12T02:03:11.900Z,1011
2023-04-12T02:05:12.175Z,1011
2023-04-12T02:07:11.821Z,1011
2023-04-12T02:09:11.810Z,1011
2023-04-12T02:11:17.523Z,1012
2023-04-12T02:13:11.819Z,1012
2023-04-12T02:15:11.773Z,1011
2023-04-12T02:17:11.778Z,1011
2023-04-12T02:19:14.385Z,1011
2023-04-12T02:21:18.471Z,1011
2023-04-12T02:23:12.194Z,1011
2023-04-12T02:25:11.801Z,1011
2023-04-12T02:27:16.243Z,1011
2023-04-12T02:29:11.776Z,1011
2023-04-12T02:33:17.460Z,1011
2023-04-12T02:35:11.840Z,1011
2023-04-12T02:37:12.255Z,1011
2023-04-12T02:39:12.234Z,1011
2023-04-12T02:41:11.789Z,1011
2023-04-12T02:43:11.848Z,1011
2023-04-12T02:45:11.851Z,1011
2023-04-12T02:47:17.106Z,1011
2023-04-12T02:49:11.846Z,1011
2023-04-12T02:51:11.785Z,1011
2023-04-12T02:53:11.802Z,1011
2023-04-12T02:55:12.986Z,1011
2023-04-12T02:57:11.774Z,1011
2023-04-12T02:59:12.192Z,1011
2023-04-12T03:01:11.840Z,1011
2023-04-12T03:03:11.867Z,1011
2023-04-12T03:05:12.262Z,1011
2023-04-12T03:09:11.798Z,1011
2023-04-12T03:11:11.846Z,1011
2023-04-12T03:13:11.794Z,1011
2023-04-12T03:15:13.042Z,1011
2023-04-12T03:17:12.026Z,1011
2023-04-12T03:19:12.273Z,1011
2023-04-12T03:21:11.800Z,1011
2023-04-12T03:23:11.847Z,1011
2023-04-12T03:25:12.359Z,1011
2023-04-12T03:27:11.814Z,1011
2023-04-12T03:29:11.832Z,1011
2023-04-12T03:31:12.154Z,1011
2023-04-12T03:33:13.003Z,1011
2023-04-12T03:35:11.847Z,1011
2023-04-12T03:37:11.799Z,1010
2023-04-12T03:39:11.841Z,1010
2023-04-12T03:41:11.838Z,1010
2023-04-12T03:43:12.929Z,1010
2023-04-12T03:45:17.952Z,1010
2023-04-12T03:47:11.819Z,1010
2023-04-12T03:49:11.801Z,1010
2023-04-12T03:51:12.156Z,1010
2023-04-12T03:53:11.906Z,1010
2023-04-12T03:55:11.904Z,1010
2023-04-12T03:57:18.283Z,1010
2023-04-12T03:59:11.836Z,1010
2023-04-12T04:01:11.800Z,1010
2023-04-12T04:03:12.244Z,1010
2023-04-12T04:05:11.977Z,1010
2023-04-12T04:07:11.799Z,1010
2023-04-12T04:09:11.806Z,1010
2023-04-12T04:11:11.864Z,1010
2023-04-12T04:13:12.169Z,1010
2023-04-12T04:15:11.800Z,1010
2023-04-12T04:17:12.341Z,1010
2023-04-12T04:19:12.956Z,1010
2023-04-12T04:21:11.823Z,1010
2023-04-12T04:23:19.064Z,1010
2023-04-12T04:25:12.037Z,1010
2023-04-12T04:27:11.810Z,1010
2023-04-12T04:29:12.051Z,1010
2023-04-12T04:31:11.813Z,1009
2023-04-12T04:33:11.847Z,1010
2023-04-12T04:35:11.807Z,1009
2023-04-12T04:37:11.920Z,1009
2023-04-12T04:39:11.916Z,1009
2023-04-12T04:41:11.826Z,1009
2023-04-12T04:43:12.251Z,1009
2023-04-12T04:45:12.233Z,1009
2023-04-12T04:47:12.192Z,1009
2023-04-12T04:49:12.210Z,1009
2023-04-12T04:51:11.869Z,1009
2023-04-12T04:53:16.180Z,1009
2023-04-12T04:55:12.262Z,1009
2023-04-12T04:57:11.845Z,1009
2023-04-12T04:59:12.198Z,1009
2023-04-12T05:01:12.292Z,1009
2023-04-12T05:03:12.023Z,1009
2023-04-12T05:05:11.828Z,1009
2023-04-12T05:07:12.161Z,1009
2023-04-12T05:09:16.165Z,1009
2023-04-12T05:11:11.847Z,1009
2023-04-12T05:13:12.255Z,1009
2023-04-12T05:15:16.860Z,1009
2023-04-12T05:17:11.812Z,1009
2023-04-12T05:19:12.270Z,1009
2023-04-12T05:21:11.857Z,1009
2023-04-12T05:23:11.837Z,1009
2023-04-12T05:27:13.012Z,1009
2023-04-12T05:29:11.835Z,1009
2023-04-12T05:31:18.423Z,1009
2023-04-12T05:33:12.948Z,1009
2023-04-12T05:35:13.015Z,1009
2023-04-12T05:37:12.242Z,1009
2023-04-12T05:39:11.816Z,1009
2023-04-12T05:41:11.861Z,1009
2023-04-12T05:43:12.188Z,1009
2023-04-12T05:45:11.808Z,1009
2023-04-12T05:47:11.842Z,1009
2023-04-12T05:49:12.204Z,1009
2023-04-12T05:51:11.910Z,1009
2023-04-12T05:53:16.686Z,1009
2023-04-12T05:55:12.286Z,1009
2023-04-12T05:57:11.811Z,1009
2023-04-12T05:59:11.924Z,1009
2023-04-12T06:01:11.827Z,1009
2023-04-12T06:03:11.919Z,1009
2023-04-12T06:05:11.877Z,1009
2023-04-12T06:07:11.840Z,1009
2023-04-12T06:09:11.808Z,1009
2023-04-12T06:11:11.810Z,1009
2023-04-12T06:13:12.217Z,1009
2023-04-12T06:15:17.498Z,1009
2023-04-12T06:17:11.821Z,1009
2023-04-12T06:19:12.368Z,1009
2023-04-12T06:21:11.823Z,1009
2023-04-12T06:23:11.821Z,1009
2023-04-12T06:25:12.454Z,1009
2023-04-12T06:27:12.274Z,1009
2023-04-12T06:29:18.059Z,1009
2023-04-12T06:31:11.877Z,1009
2023-04-12T06:33:12.463Z,1009
2023-04-12T06:35:11.804Z,1009
2023-04-12T06:37:12.044Z,1009
2023-04-12T06:39:12.608Z,1009
2023-04-12T06:41:11.808Z,1009
2023-04-12T06:43:12.222Z,1009
2023-04-12T06:45:12.553Z,1009
2023-04-12T06:47:12.021Z,1009
2023-04-12T06:49:11.817Z,1008
2023-04-12T06:51:11.960Z,1008
2023-04-12T06:53:11.804Z,1008
2023-04-12T06:55:12.008Z,1008
2023-04-12T06:57:11.853Z,1008
2023-04-12T06:59:14.374Z,1008
2023-04-12T07:01:11.817Z,1008
2023-04-12T07:03:17.628Z,1008
2023-04-12T07:05:11.812Z,1008
2023-04-12T07:07:11.845Z,1008
2023-04-12T07:09:18.566Z,1008
2023-04-12T07:11:20.503Z,1008
2023-04-12T07:13:11.908Z,1008
2023-04-12T07:15:12.218Z,1008
2023-04-12T07:17:11.811Z,1008
2023-04-12T07:19:11.853Z,1008
2023-04-12T07:23:11.826Z,1008
2023-04-12T07:25:12.508Z,1008
2023-04-12T07:27:12.667Z,1008
2023-04-12T07:29:12.580Z,1008
2023-04-12T07:31:11.863Z,1008
2023-04-12T07:33:19.425Z,1008
2023-04-12T07:35:11.823Z,1008
2023-04-12T07:37:11.867Z,1008
2023-04-12T07:39:15.652Z,1008
2023-04-12T07:41:12.601Z,1008
2023-04-12T07:43:12.268Z,1008
2023-04-12T07:45:11.837Z,1007
2023-04-12T07:47:11.829Z,1007
2023-04-12T07:49:12.623Z,1007
2023-04-12T07:51:11.841Z,1007
2023-04-12T07:53:11.841Z,1007
2023-04-12T07:55:12.533Z,1007
2023-04-12T07:57:11.830Z,1007
2023-04-12T07:59:11.839Z,1007
2023-04-12T08:01:12.623Z,1007
2023-04-12T08:03:11.909Z,1007
2023-04-12T08:07:12.263Z,1007
2023-04-12T08:09:12.237Z,1007
2023-04-12T08:11:12.594Z,1007
2023-04-12T08:13:11.875Z,1007
2023-04-12T08:15:12.240Z,1007
2023-04-12T08:17:11.851Z,1007
2023-04-12T08:19:11.876Z,1007
2023-04-12T08:21:11.892Z,1007
2023-04-12T08:23:12.544Z,1007
2023-04-12T08:25:11.953Z,1007
2023-04-12T08:27:12.286Z,1007
2023-04-12T08:29:12.582Z,1007
2023-04-12T08:31:11.963Z,1007
2023-04-12T08:33:11.864Z,1007
2023-04-12T08:35:12.345Z,1007
2023-04-12T08:39:11.836Z,1007
2023-04-12T08:41:11.959Z,1007
2023-04-12T08:43:11.833Z,1007
2023-04-12T08:45:11.840Z,1007
2023-04-12T08:47:12.324Z,1007
2023-04-12T08:51:11.985Z,1007
2023-04-12T08:53:11.843Z,1006
2023-04-12T08:55:11.879Z,1006
2023-04-12T08:57:11.875Z,1006
2023-04-12T08:59:11.892Z,1006
2023-04-12T09:01:12.312Z,1006
2023-04-12T09:03:12.096Z,1007
2023-04-12T09:05:18.747Z,1006
2023-04-12T09:07:12.288Z,1006
2023-04-12T09:09:11.896Z,1006
2023-04-12T09:11:11.851Z,1006
2023-04-12T09:13:11.856Z,1006
2023-04-12T09:15:12.362Z,1006
2023-04-12T09:17:11.938Z,1006
2023-04-12T09:19:11.849Z,1006
2023-04-12T09:21:12.289Z,1006
2023-04-12T09:25:11.894Z,1006
2023-04-12T09:27:11.884Z,1006
2023-04-12T09:29:18.298Z,1006
2023-04-12T09:31:11.860Z,1006
2023-04-12T09:33:11.883Z,1006
2023-04-12T09:35:11.842Z,1006
2023-04-12T09:37:12.260Z,1006
2023-04-12T09:41:12.255Z,1006
2023-04-12T09:43:11.870Z,1006
2023-04-12T09:45:18.578Z,1006
2023-04-12T09:47:11.861Z,1006
2023-04-12T09:49:11.882Z,1006
2023-04-12T09:51:17.751Z,1006
2023-04-12T09:53:11.867Z,1006
2023-04-12T09:55:11.895Z,1006
2023-04-12T09:57:11.885Z,1006
2023-04-12T09:59:16.879Z,1006
2023-04-12T10:01:11.865Z,1006
2023-04-12T10:05:11.898Z,1006
2023-04-12T10:07:13.225Z,1005
2023-04-12T10:09:15.651Z,1005
2023-04-12T10:11:11.862Z,1005
2023-04-12T10:13:11.901Z,1005
2023-04-12T10:15:11.914Z,1005
2023-04-12T10:17:11.851Z,1005
2023-04-12T10:19:11.863Z,1005
2023-04-12T10:21:11.885Z,1005
2023-04-12T10:23:12.244Z,1005
2023-04-12T10:25:11.847Z,1005
2023-04-12T10:27:11.886Z,1005
2023-04-12T10:29:12.672Z,1005
2023-04-12T10:31:11.883Z,1005
2023-04-12T10:33:17.845Z,1005
2023-04-12T10:37:12.611Z,1005
2023-04-12T10:39:12.366Z,1005
2023-04-12T10:43:12.352Z,1005
2023-04-12T10:45:11.856Z,1005
2023-04-12T10:47:18.175Z,1005
2023-04-12T10:49:11.937Z,1005
2023-04-12T10:51:11.868Z,1005
2023-04-12T10:53:11.897Z,1005
2023-04-12T10:55:19.092Z,1005
2023-04-12T10:59:11.863Z,1005
2023-04-12T11:01:18.660Z,1005
2023-04-12T11:03:12.316Z,1005
2023-04-12T11:05:12.304Z,1005
2023-04-12T11:07:12.448Z,1005
2023-04-12T11:11:11.918Z,1005
2023-04-12T11:13:12.259Z,1005
2023-04-12T11:15:12.010Z,1005
2023-04-12T11:17:11.968Z,1005
2023-04-12T11:19:11.874Z,1005
2023-04-12T11:23:11.943Z,1005
2023-04-12T11:25:11.963Z,1005
2023-04-12T11:27:11.912Z,1005
2023-04-12T11:29:12.261Z,1005
2023-04-12T11:31:12.303Z,1005
2023-04-12T11:33:11.928Z,1005
2023-04-12T11:35:11.888Z,1005
2023-04-12T11:37:11.869Z,1005
2023-04-12T11:39:18.229Z,1005
2023-04-12T11:41:11.897Z,1005
2023-04-12T11:43:11.863Z,1005
2023-04-12T11:45:18.545Z,1005
2023-04-12T11:47:11.904Z,1005
2023-04-12T11:49:18.258Z,1005
2023-04-12T11:53:12.287Z,1005
2023-04-12T11:55:12.263Z,1005
2023-04-12T11:57:12.319Z,1005
2023-04-12T11:59:11.913Z,1005
2023-04-12T12:01:16.068Z,1005
2023-04-12T12:03:11.985Z,1005
2023-04-12T12:05:12.454Z,1004
2023-04-12T12:07:12.356Z,1005
2023-04-12T12:09:11.901Z,1005
2023-04-12T12:11:11.870Z,1005
2023-04-12T12:13:16.016Z,1005
2023-04-12T12:15:12.634Z,1005
2023-04-12T12:17:12.327Z,1004
2023-04-12T12:19:12.646Z,1004
2023-04-12T12:21:11.908Z,1004
2023-04-12T12:23:12.610Z,1004
2023-04-12T12:25:11.877Z,1004
2023-04-12T12:29:11.867Z,1004
2023-04-12T12:31:15.716Z,1004
2023-04-12T12:35:11.874Z,1004
2023-04-12T12:37:19.144Z,1004
2023-04-12T12:39:12.419Z,1004
2023-04-12T12:43:12.630Z,1004
2023-04-12T12:45:11.875Z,1004
2023-04-12T12:49:12.382Z,1004
2023-04-12T12:51:11.878Z,1004
2023-04-12T12:53:14.560Z,1004
2023-04-12T12:55:11.917Z,1004
2023-04-12T12:57:11.883Z,1003
2023-04-12T13:01:11.964Z,1003
2023-04-12T13:03:18.759Z,1003
2023-04-12T13:05:12.389Z,1003
2023-04-12T13:09:12.612Z,1003
2023-04-12T13:11:11.906Z,1003
2023-04-12T13:13:11.873Z,1003
2023-04-12T13:15:20.828Z,1003
2023-04-12T13:17:12.683Z,1003
2023-04-12T13:19:11.915Z,1003
2023-04-12T13:21:12.268Z,1003
2023-04-12T13:23:11.936Z,1003
2023-04-12T13:25:17.005Z,1003
2023-04-12T13:27:13.929Z,1003
2023-04-12T13:29:12.339Z,1003
2023-04-12T13:31:12.285Z,1003
2023-04-12T13:35:11.882Z,1003
2023-04-12T13:37:12.326Z,1003
2023-04-12T13:39:12.109Z,1003
2023-04-12T13:41:11.879Z,1003
2023-04-12T13:43:16.492Z,1003
2023-04-12T13:45:12.385Z,1003
2023-04-12T13:47:12.598Z,1003
2023-04-12T13:49:11.875Z,1003
2023-04-12T13:51:18.350Z,1003
2023-04-12T13:53:11.905Z,1003
2023-04-12T13:55:12.678Z,1003
2023-04-12T13:57:12.289Z,1003
2023-04-12T13:59:12.327Z,1003
2023-04-12T14:01:12.079Z,1003
2023-04-12T14:03:12.106Z,1003
2023-04-12T14:05:16.040Z,1003
2023-04-12T14:07:11.983Z,1003
2023-04-12T14:09:16.580Z,1003
2023-04-12T14:11:12.017Z,1003
2023-04-12T14:13:12.130Z,1002
2023-04-12T14:15:16.018Z,1002
2023-04-12T14:17:11.926Z,1002
2023-04-12T14:19:11.914Z,1002
2023-04-12T14:21:16.040Z,1002
2023-04-12T14:23:12.256Z,1002
2023-04-12T14:25:12.118Z,1002
2023-04-12T14:27:11.926Z,1002
2023-04-12T14:29:11.903Z,1002
2023-04-12T14:31:15.214Z,1002
2023-04-12T14:33:12.655Z,1002
2023-04-12T14:37:11.909Z,1002
2023-04-12T14:41:11.893Z,1002
2023-04-12T14:43:11.885Z,1002
2023-04-12T14:45:17.662Z,1002
2023-04-12T14:47:11.873Z,1002
2023-04-12T14:49:12.325Z,1002
2023-04-12T14:51:11.941Z,1002
2023-04-12T14:53:11.894Z,1002
2023-04-12T14:55:17.444Z,1002
2023-04-12T14:57:11.949Z,1002
2023-04-12T14:59:12.372Z,1002
2023-04-12T15:01:11.902Z,1002
2023-04-12T15:03:18.029Z,1002
2023-04-12T15:05:11.932Z,1002
2023-04-12T15:07:11.880Z,1002
2023-04-12T15:09:19.072Z,1002
2023-04-12T15:13:11.883Z,1002
2023-04-12T15:15:11.911Z,1002
2023-04-12T15:17:18.744Z,1002
2023-04-12T15:19:17.929Z,1002
2023-04-12T15:21:12.310Z,1002
2023-04-12T15:25:11.954Z,1002
2023-04-12T15:29:12.648Z,1002
2023-04-12T15:31:12.411Z,1002
2023-04-12T15:33:11.943Z,1002
2023-04-12T15:37:11.947Z,1002
2023-04-12T15:39:11.987Z,1002
2023-04-12T15:41:18.216Z,1002
2023-04-12T15:45:11.901Z,1002
2023-04-12T15:47:12.202Z,1002
2023-04-12T15:49:11.934Z,1002
2023-04-12T15:51:19.546Z,1002
2023-04-12T15:53:11.905Z,1002
2023-04-12T15:57:11.909Z,1002
2023-04-12T16:01:12.365Z,1002
2023-04-12T16:03:12.350Z,1002
2023-04-12T16:05:12.631Z,1002
2023-04-12T16:07:11.937Z,1002
2023-04-12T16:09:11.904Z,1002
2023-04-12T16:11:12.254Z,1002
2023-04-12T16:13:11.947Z,1002
2023-04-12T16:15:12.347Z,1001
2023-04-12T16:17:11.889Z,1002
2023-04-12T16:19:11.918Z,1002
2023-04-12T16:21:16.508Z,1002
2023-04-12T16:23:12.268Z,1002
2023-04-12T16:25:11.972Z,1002
2023-04-12T16:27:17.426Z,1001
2023-04-12T16:29:12.290Z,1001
2023-04-12T16:31:11.971Z,1001
2023-04-12T16:33:11.926Z,1001
2023-04-12T16:35:16.054Z,1002
2023-04-12T16:37:11.942Z,1001
2023-04-12T16:39:11.916Z,1001
2023-04-12T16:41:19.115Z,1001
2023-04-12T16:43:12.005Z,1001
2023-04-12T16:45:12.375Z,1001
2023-04-12T16:47:11.928Z,1001
2023-04-12T16:49:12.024Z,1001
2023-04-12T16:51:11.944Z,1001
2023-04-12T16:53:12.398Z,1001
2023-04-12T16:57:12.057Z,1001
2023-04-12T16:59:12.295Z,1001
2023-04-12T17:03:11.953Z,1001
2023-04-12T17:05:12.036Z,1001
2023-04-12T17:07:11.946Z,1001
2023-04-12T17:09:17.328Z,1001
2023-04-12T17:11:12.024Z,1001
2023-04-12T17:13:12.524Z,1001
2023-04-12T17:15:11.967Z,1001
2023-04-12T17:17:12.300Z,1001
2023-04-12T17:19:11.916Z,1001
2023-04-12T17:21:11.924Z,1001
2023-04-12T17:23:11.923Z,1001
2023-04-12T17:25:11.957Z,1001
2023-04-12T17:27:18.457Z,1001
2023-04-12T17:29:11.908Z,1001
2023-04-12T17:31:12.044Z,1001
2023-04-12T17:33:17.924Z,1001
2023-04-12T17:35:11.935Z,1001
2023-04-12T17:37:11.976Z,1001
2023-04-12T17:39:18.419Z,1001
2023-04-12T17:41:11.906Z,1001
2023-04-12T17:43:11.911Z,1001
2023-04-12T17:45:11.940Z,1001
2023-04-12T17:47:12.670Z,1002
2023-04-12T17:49:11.903Z,1002
2023-04-12T17:51:11.949Z,1002
2023-04-12T17:53:12.109Z,1002
2023-04-12T17:55:12.010Z,1002
2023-04-12T17:57:13.082Z,1002
2023-04-12T17:59:11.946Z,1002
2023-04-12T18:01:11.906Z,1002
2023-04-12T18:03:18.547Z,1002
2023-04-12T18:05:12.172Z,1002
2023-04-12T18:07:12.031Z,1002
2023-04-12T18:09:12.412Z,1002
2023-04-12T18:11:12.008Z,1002
2023-04-12T18:13:12.332Z,1002
2023-04-12T18:15:11.966Z,1002
2023-04-12T18:17:12.110Z,1002
2023-04-12T18:19:12.131Z,1002
2023-04-12T18:21:17.469Z,1002
2023-04-12T18:23:12.370Z,1002
2023-04-12T18:25:12.238Z,1003
2023-04-12T18:27:12.351Z,1003
2023-04-12T18:29:12.233Z,1003
2023-04-12T18:31:13.116Z,1003
2023-04-12T18:33:12.236Z,1003
2023-04-12T18:35:12.706Z,1003
2023-04-12T18:37:12.061Z,1003
2023-04-12T18:39:12.065Z,1003
2023-04-12T18:43:12.503Z,1003
2023-04-12T18:45:12.184Z,1003
2023-04-12T18:47:11.990Z,1003
2023-04-12T18:51:12.134Z,1003
2023-04-12T18:53:11.958Z,1003
2023-04-12T18:55:12.001Z,1003
2023-04-12T18:57:11.919Z,1003
2023-04-12T18:59:11.968Z,1003
2023-04-12T19:01:12.008Z,1003
2023-04-12T19:03:12.057Z,1003
2023-04-12T19:05:11.955Z,1003
2023-04-12T19:07:11.945Z,1003
2023-04-12T19:09:11.945Z,1003
2023-04-12T19:11:12.320Z,1003
2023-04-12T19:13:11.962Z,1003
2023-04-12T19:15:11.917Z,1003
2023-04-12T19:17:11.987Z,1003
2023-04-12T19:21:12.683Z,1003
2023-04-12T19:23:12.256Z,1003
2023-04-12T19:25:12.075Z,1003
2023-04-12T19:27:12.376Z,1003
2023-04-12T19:29:11.897Z,1003
2023-04-12T19:31:12.120Z,1003
2023-04-12T19:35:11.945Z,1003
2023-04-12T19:37:11.934Z,1003
2023-04-12T19:39:18.492Z,1003
2023-04-12T19:41:12.617Z,1003
2023-04-12T19:43:11.929Z,1003
2023-04-12T19:45:11.924Z,1003
2023-04-12T19:47:11.904Z,1003
2023-04-12T19:49:11.957Z,1003
2023-04-12T19:51:18.869Z,1003
2023-04-12T19:53:12.263Z,1003
2023-04-12T19:55:12.352Z,1003
2023-04-12T19:57:12.480Z,1003
2023-04-12T19:59:11.913Z,1003
2023-04-12T20:01:12.306Z,1003
2023-04-12T20:03:11.970Z,1003
2023-04-12T20:05:11.956Z,1003
2023-04-12T20:07:11.930Z,1003
2023-04-12T20:09:13.738Z,1003
2023-04-12T20:11:12.084Z,1003
2023-04-12T20:13:11.919Z,1003
2023-04-12T20:15:12.403Z,1003
2023-04-12T20:17:12.052Z,1003
2023-04-12T20:19:11.976Z,1003
2023-04-12T20:21:11.927Z,1003
2023-04-12T20:23:11.917Z,1004
2023-04-12T20:25:11.981Z,1004
2023-04-12T20:27:12.321Z,1004
2023-04-12T20:29:11.909Z,1004
2023-04-12T20:31:12.001Z,1004
2023-04-12T20:33:11.943Z,1004
2023-04-12T20:35:11.915Z,1004
2023-04-12T20:37:11.937Z,1004
2023-04-12T20:39:11.915Z,1004
2023-04-12T20:41:11.923Z,1004
2023-04-12T20:43:12.433Z,1004
2023-04-12T20:45:11.920Z,1004
2023-04-12T20:47:11.910Z,1004
2023-04-12T20:49:11.943Z,1004
2023-04-12T20:51:11.947Z,1004
2023-04-12T20:53:11.949Z,1004
2023-04-12T20:55:12.451Z,1004
2023-04-12T20:57:11.915Z,1004
2023-04-12T20:59:11.957Z,1004
2023-04-12T21:01:11.964Z,1004
2023-04-12T21:03:12.562Z,1004
2023-04-12T21:05:11.953Z,1004
2023-04-12T21:07:11.954Z,1004
2023-04-12T21:09:11.926Z,1004
2023-04-12T21:11:11.940Z,1004
2023-04-12T21:13:11.927Z,1004
2023-04-12T21:15:12.389Z,1004
2023-04-12T21:17:11.956Z,1004
2023-04-12T21:19:11.913Z,1004
2023-04-12T21:21:11.936Z,1004
2023-04-12T21:23:12.671Z,1004
2023-04-12T21:25:11.964Z,1004
2023-04-12T21:27:11.950Z,1004
2023-04-12T21:29:11.916Z,1004
2023-04-12T21:31:12.439Z,1004
2023-04-12T21:33:11.922Z,1004
2023-04-12T21:35:11.948Z,1004
2023-04-12T21:37:11.953Z,1004
2023-04-12T21:39:16.537Z,1004
2023-04-12T21:41:11.931Z,1004
2023-04-12T21:43:12.355Z,1004
2023-04-12T21:45:11.974Z,1004
2023-04-12T21:47:11.921Z,1004
2023-04-12T21:49:18.307Z,1004
2023-04-12T21:53:11.970Z,1004
2023-04-12T21:55:11.992Z,1004
2023-04-12T21:57:11.928Z,1004
2023-04-12T21:59:11.929Z,1004
2023-04-12T22:01:11.955Z,1004
2023-04-12T22:05:12.303Z,1004
2023-04-12T22:07:11.922Z,1004
2023-04-12T22:09:12.416Z,1004
2023-04-12T22:11:11.993Z,1004
2023-04-12T22:13:11.957Z,1004
2023-04-12T22:15:12.403Z,1004
2023-04-12T22:17:11.962Z,1004
2023-04-12T22:19:11.933Z,1004
2023-04-12T22:21:12.011Z,1004
2023-04-12T22:23:18.460Z,1004
2023-04-12T22:25:11.972Z,1005
2023-04-12T22:27:11.997Z,1005
2023-04-12T22:29:12.595Z,1004
2023-04-12T22:31:12.047Z,1005
2023-04-12T22:33:11.995Z,1005
2023-04-12T22:35:11.949Z,1005
2023-04-12T22:37:12.373Z,1005
2023-04-12T22:39:12.013Z,1005
2023-04-12T22:41:11.932Z,1005
2023-04-12T22:43:12.033Z,1005
2023-04-12T22:45:11.998Z,1005
2023-04-12T22:47:12.553Z,1005
2023-04-12T22:49:12.051Z,1005
2023-04-12T22:51:12.420Z,1005
2023-04-12T22:53:12.309Z,1005
2023-04-12T22:55:12.053Z,1005
2023-04-12T22:57:11.939Z,1005
2023-04-12T22:59:12.452Z,1005
2023-04-12T23:01:12.734Z,1005
2023-04-12T23:03:12.000Z,1005
2023-04-12T23:05:13.371Z,1005
2023-04-12T23:09:11.971Z,1005
2023-04-12T23:13:11.977Z,1005
2023-04-12T23:15:12.342Z,1005
2023-04-12T23:17:11.941Z,1005
2023-04-12T23:19:12.007Z,1005
2023-04-12T23:21:12.082Z,1005
2023-04-12T23:23:12.353Z,1005
2023-04-12T23:25:11.977Z,1005
2023-04-12T23:27:11.939Z,1005
2023-04-12T23:29:12.684Z,1005
2023-04-12T23:31:12.000Z,1005
2023-04-12T23:33:12.296Z,1005
2023-04-12T23:35:12.628Z,1006
2023-04-12T23:37:12.629Z,1006
2023-04-12T23:39:11.941Z,1006
2023-04-12T23:41:11.929Z,1006
2023-04-12T23:43:12.014Z,1006
2023-04-12T23:45:11.990Z,1006
2023-04-12T23:47:11.967Z,1006
2023-04-12T23:49:12.023Z,1006
2023-04-12T23:51:12.412Z,1006
2023-04-12T23:53:11.971Z,1006
2023-04-12T23:55:12.014Z,1005
2023-04-12T23:57:11.947Z,1006
2023-04-12T23:59:11.977Z,1006
